createdAt,value
2022-10-05T00:00:11.701Z,476.00
2022-10-05T00:01:11.853Z,486.00
2022-10-05T00:02:11.796Z,534.00
2022-10-05T00:03:12.194Z,491.00
2022-10-05T00:04:11.998Z,501.00
2022-10-05T00:05:12.000Z,538.00
2022-10-05T00:06:11.819Z,480.00
2022-10-05T00:07:12.023Z,486.00
2022-10-05T00:08:11.864Z,475.00
2022-10-05T00:09:12.070Z,475.00
2022-10-05T00:10:11.951Z,513.00
2022-10-05T00:11:12.040Z,480.00
2022-10-05T00:12:11.933Z,577.00
2022-10-05T00:13:12.158Z,518.00
2022-10-05T00:14:11.966Z,487.00
2022-10-05T00:15:12.125Z,496.00
2022-10-05T00:16:12.100Z,455.00
2022-10-05T00:17:12.438Z,469.00
2022-10-05T00:18:12.050Z,498.00
2022-10-05T00:19:12.198Z,493.00
2022-10-05T00:20:12.078Z,555.00
2022-10-05T00:21:12.327Z,527.00
2022-10-05T00:22:12.177Z,488.00
2022-10-05T00:23:12.292Z,488.00
2022-10-05T00:24:12.175Z,521.00
2022-10-05T00:25:12.381Z,481.00
2022-10-05T00:26:12.204Z,492.00
2022-10-05T00:27:12.396Z,445.00
2022-10-05T00:28:12.321Z,511.00
2022-10-05T00:29:12.385Z,583.00
2022-10-05T00:30:12.280Z,518.00
2022-10-05T00:31:12.507Z,495.00
2022-10-05T00:32:12.399Z,520.00
2022-10-05T00:33:12.504Z,544.00
2022-10-05T00:34:12.426Z,478.00
2022-10-05T00:35:12.540Z,470.00
2022-10-05T00:36:12.377Z,461.00
2022-10-05T00:37:12.519Z,515.00
2022-10-05T00:38:12.410Z,488.00
2022-10-05T00:39:12.616Z,484.00
2022-10-05T00:40:12.500Z,491.00
2022-10-05T00:41:12.600Z,477.00
2022-10-05T00:42:12.490Z,465.00
2022-10-05T00:43:12.685Z,453.00
2022-10-05T00:44:12.518Z,521.00
2022-10-05T00:45:12.801Z,508.00
2022-10-05T00:46:12.578Z,504.00
2022-10-05T00:47:12.694Z,470.00
2022-10-05T00:48:12.572Z,523.00
2022-10-05T00:49:12.758Z,514.00
2022-10-05T00:50:12.603Z,477.00
2022-10-05T00:51:12.860Z,470.00
2022-10-05T00:52:12.642Z,485.00
2022-10-05T00:53:12.802Z,469.00
2022-10-05T00:54:18.063Z,483.00
2022-10-05T00:55:12.875Z,432.00
2022-10-05T00:56:12.703Z,468.00
2022-10-05T00:57:12.947Z,471.00
2022-10-05T00:58:12.737Z,706.00
2022-10-05T00:59:12.894Z,464.00
2022-10-05T01:00:12.780Z,463.00
2022-10-05T01:01:13.041Z,458.00
2022-10-05T01:02:12.845Z,498.00
2022-10-05T01:03:13.042Z,461.00
2022-10-05T01:04:12.873Z,470.00
2022-10-05T01:05:12.969Z,492.00
2022-10-05T01:06:12.870Z,546.00
2022-10-05T01:07:13.027Z,483.00
2022-10-05T01:08:12.879Z,509.00
2022-10-05T01:09:13.077Z,483.00
2022-10-05T01:10:12.930Z,509.00
2022-10-05T01:11:13.946Z,489.00
2022-10-05T01:12:12.927Z,492.00
2022-10-05T01:13:13.055Z,496.00
2022-10-05T01:14:12.937Z,527.00
2022-10-05T01:15:14.122Z,569.00
2022-10-05T01:16:13.174Z,541.00
2022-10-05T01:17:12.955Z,490.00
2022-10-05T01:18:13.146Z,446.00
2022-10-05T01:19:12.975Z,349.00
2022-10-05T01:20:13.158Z,571.00
2022-10-05T01:21:13.228Z,440.00
2022-10-05T01:22:12.992Z,423.00
2022-10-05T01:23:13.435Z,461.00
2022-10-05T01:24:13.025Z,490.00
2022-10-05T01:25:13.161Z,489.00
2022-10-05T01:26:13.041Z,481.00
2022-10-05T01:27:13.287Z,575.00
2022-10-05T01:28:13.203Z,413.00
2022-10-05T01:29:13.219Z,520.00
2022-10-05T01:30:13.107Z,468.00
2022-10-05T01:31:13.350Z,539.00
2022-10-05T01:32:13.130Z,444.00
2022-10-05T01:33:13.307Z,483.00
2022-10-05T01:34:13.156Z,492.00
2022-10-05T01:35:13.354Z,466.00
2022-10-05T01:36:13.182Z,482.00
2022-10-05T01:37:13.557Z,498.00
2022-10-05T01:38:13.205Z,502.00
2022-10-05T01:39:13.502Z,501.00
2022-10-05T01:40:13.218Z,485.00
2022-10-05T01:41:13.353Z,466.00
2022-10-05T01:42:13.239Z,505.00
2022-10-05T01:43:13.439Z,478.00
2022-10-05T01:44:13.272Z,484.00
2022-10-05T01:45:13.519Z,536.00
2022-10-05T01:46:13.360Z,464.00
2022-10-05T01:47:13.429Z,515.00
2022-10-05T01:48:13.320Z,500.00
2022-10-05T01:49:13.857Z,475.00
2022-10-05T01:50:13.358Z,487.00
2022-10-05T01:51:13.594Z,493.00
2022-10-05T01:52:13.387Z,484.00
2022-10-05T01:53:13.572Z,501.00
2022-10-05T01:54:13.455Z,494.00
2022-10-05T01:55:13.610Z,481.00
2022-10-05T01:56:13.442Z,484.00
2022-10-05T01:57:13.624Z,496.00
2022-10-05T01:58:13.486Z,535.00
2022-10-05T01:59:13.675Z,493.00
2022-10-05T02:00:13.471Z,497.00
2022-10-05T02:01:13.719Z,466.00
2022-10-05T02:02:13.591Z,480.00
2022-10-05T02:03:13.647Z,490.00
2022-10-05T02:04:29.551Z,473.00
2022-10-05T02:05:13.703Z,494.00
2022-10-05T02:06:13.546Z,439.00
2022-10-05T02:07:13.673Z,501.00
2022-10-05T02:08:14.739Z,505.00
2022-10-05T02:09:13.749Z,494.00
2022-10-05T02:10:13.589Z,472.00
2022-10-05T02:11:13.980Z,415.00
2022-10-05T02:12:13.615Z,524.00
2022-10-05T02:13:13.750Z,523.00
2022-10-05T02:14:13.910Z,566.00
2022-10-05T02:15:13.653Z,451.00
2022-10-05T02:16:13.854Z,501.00
2022-10-05T02:17:13.687Z,470.00
2022-10-05T02:18:13.897Z,560.00
2022-10-05T02:19:13.714Z,512.00
2022-10-05T02:20:13.953Z,472.00
2022-10-05T02:21:13.732Z,471.00
2022-10-05T02:22:13.886Z,438.00
2022-10-05T02:23:13.763Z,516.00
2022-10-05T02:24:13.969Z,540.00
2022-10-05T02:25:13.895Z,509.00
2022-10-05T02:26:14.060Z,510.00
2022-10-05T02:27:13.833Z,499.00
2022-10-05T02:28:14.027Z,662.00
2022-10-05T02:29:13.887Z,486.00
2022-10-05T02:30:16.593Z,462.00
2022-10-05T02:31:14.194Z,474.00
2022-10-05T02:32:13.903Z,450.00
2022-10-05T02:33:14.108Z,457.00
2022-10-05T02:34:13.941Z,516.00
2022-10-05T02:35:14.094Z,574.00
2022-10-05T02:36:13.979Z,483.00
2022-10-05T02:37:14.421Z,519.00
2022-10-05T02:38:14.006Z,500.00
2022-10-05T02:39:14.146Z,505.00
2022-10-05T02:40:14.066Z,500.00
2022-10-05T02:41:15.087Z,465.00
2022-10-05T02:42:14.079Z,498.00
2022-10-05T02:43:14.265Z,484.00
2022-10-05T02:44:14.115Z,497.00
2022-10-05T02:45:14.305Z,495.00
2022-10-05T02:46:14.297Z,478.00
2022-10-05T02:47:14.497Z,434.00
2022-10-05T02:48:14.237Z,519.00
2022-10-05T02:49:14.338Z,379.00
2022-10-05T02:50:14.218Z,591.00
2022-10-05T02:51:14.499Z,524.00
2022-10-05T02:52:14.228Z,504.00
2022-10-05T02:53:14.394Z,460.00
2022-10-05T02:54:14.304Z,468.00
2022-10-05T02:55:14.503Z,495.00
2022-10-05T02:56:14.280Z,496.00
2022-10-05T02:57:14.422Z,543.00
2022-10-05T02:58:14.316Z,489.00
2022-10-05T02:59:14.592Z,571.00
2022-10-05T03:00:14.460Z,524.00
2022-10-05T03:01:14.519Z,478.00
2022-10-05T03:02:14.450Z,582.00
2022-10-05T03:03:14.577Z,529.00
2022-10-05T03:04:14.423Z,591.00
2022-10-05T03:05:14.578Z,501.00
2022-10-05T03:06:14.689Z,466.00
2022-10-05T03:07:14.484Z,567.00
2022-10-05T03:08:14.624Z,412.00
2022-10-05T03:09:14.516Z,483.00
2022-10-05T03:10:14.698Z,518.00
2022-10-05T03:11:14.556Z,558.00
2022-10-05T03:12:14.759Z,499.00
2022-10-05T03:13:14.579Z,516.00
2022-10-05T03:14:14.723Z,502.00
2022-10-05T03:15:14.604Z,451.00
2022-10-05T03:16:14.891Z,512.00
2022-10-05T03:17:14.653Z,543.00
2022-10-05T03:18:14.973Z,499.00
2022-10-05T03:19:14.680Z,488.00
2022-10-05T03:20:14.826Z,527.00
2022-10-05T03:21:14.713Z,485.00
2022-10-05T03:22:14.903Z,450.00
2022-10-05T03:23:14.799Z,442.00
2022-10-05T03:24:14.920Z,539.00
2022-10-05T03:25:14.799Z,508.00
2022-10-05T03:26:14.935Z,292.00
2022-10-05T03:27:14.846Z,369.00
2022-10-05T03:28:15.172Z,384.00
2022-10-05T03:29:14.932Z,511.00
2022-10-05T03:30:15.027Z,453.00
2022-10-05T03:31:14.976Z,481.00
2022-10-05T03:32:15.127Z,548.00
2022-10-05T03:33:14.966Z,535.00
2022-10-05T03:34:15.121Z,507.00
2022-10-05T03:35:15.056Z,588.00
2022-10-05T03:36:15.200Z,476.00
2022-10-05T03:37:15.050Z,475.00
2022-10-05T03:38:15.202Z,496.00
2022-10-05T03:39:15.082Z,521.00
2022-10-05T03:40:15.289Z,472.00
2022-10-05T03:41:15.181Z,499.00
2022-10-05T03:42:15.324Z,558.00
2022-10-05T03:43:15.175Z,402.00
2022-10-05T03:44:15.331Z,492.00
2022-10-05T03:45:15.226Z,528.00
2022-10-05T03:46:15.476Z,459.00
2022-10-05T03:47:15.324Z,159.00
2022-10-05T03:48:15.429Z,406.00
2022-10-05T03:49:15.341Z,525.00
2022-10-05T03:50:15.541Z,546.00
2022-10-05T03:51:15.378Z,507.00
2022-10-05T03:52:15.885Z,504.00
2022-10-05T03:53:15.442Z,465.00
2022-10-05T03:54:15.594Z,518.00
2022-10-05T03:55:15.750Z,538.00
2022-10-05T03:56:15.531Z,489.00
2022-10-05T03:57:15.695Z,501.00
2022-10-05T03:58:15.647Z,460.00
2022-10-05T03:59:15.799Z,482.00
2022-10-05T04:00:15.654Z,483.00
2022-10-05T04:01:15.911Z,494.00
2022-10-05T04:02:15.770Z,469.00
2022-10-05T04:03:15.867Z,504.00
2022-10-05T04:04:16.031Z,472.00
2022-10-05T04:05:15.798Z,496.00
2022-10-05T04:06:15.934Z,502.00
2022-10-05T04:07:15.827Z,502.00
2022-10-05T04:08:16.020Z,496.00
2022-10-05T04:09:15.865Z,451.00
2022-10-05T04:10:16.177Z,475.00
2022-10-05T04:11:15.918Z,491.00
2022-10-05T04:12:16.057Z,484.00
2022-10-05T04:13:15.966Z,487.00
2022-10-05T04:14:16.146Z,484.00
2022-10-05T04:15:18.820Z,494.00
2022-10-05T04:16:16.310Z,487.00
2022-10-05T04:17:16.027Z,496.00
2022-10-05T04:18:16.306Z,493.00
2022-10-05T04:19:16.065Z,495.00
2022-10-05T04:20:16.195Z,478.00
2022-10-05T04:21:20.051Z,485.00
2022-10-05T04:22:16.453Z,490.00
2022-10-05T04:23:16.170Z,482.00
2022-10-05T04:24:16.273Z,495.00
2022-10-05T04:25:16.182Z,494.00
2022-10-05T04:26:16.369Z,503.00
2022-10-05T04:27:16.229Z,506.00
2022-10-05T04:28:16.461Z,494.00
2022-10-05T04:29:16.257Z,494.00
2022-10-05T04:30:16.697Z,488.00
2022-10-05T04:31:16.345Z,507.00
2022-10-05T04:32:16.407Z,492.00
2022-10-05T04:33:16.689Z,495.00
2022-10-05T04:34:16.398Z,497.00
2022-10-05T04:35:16.505Z,478.00
2022-10-05T04:36:16.405Z,478.00
2022-10-05T04:37:16.589Z,475.00
2022-10-05T04:38:16.424Z,545.00
2022-10-05T04:39:16.570Z,482.00
2022-10-05T04:40:16.690Z,475.00
2022-10-05T04:41:16.482Z,494.00
2022-10-05T04:42:16.617Z,499.00
2022-10-05T04:43:16.527Z,479.00
2022-10-05T04:44:16.726Z,484.00
2022-10-05T04:45:16.550Z,494.00
2022-10-05T04:46:16.935Z,482.00
2022-10-05T04:47:16.586Z,477.00
2022-10-05T04:48:16.736Z,482.00
2022-10-05T04:49:16.621Z,484.00
2022-10-05T04:50:16.819Z,497.00
2022-10-05T04:51:16.711Z,492.00
2022-10-05T04:52:16.883Z,492.00
2022-10-05T04:53:16.703Z,502.00
2022-10-05T04:54:16.853Z,498.00
2022-10-05T04:55:16.749Z,488.00
2022-10-05T04:56:16.942Z,478.00
2022-10-05T04:57:16.835Z,479.00
2022-10-05T04:58:16.934Z,490.00
2022-10-05T04:59:16.816Z,486.00
2022-10-05T05:00:17.005Z,471.00
2022-10-05T05:01:16.885Z,478.00
2022-10-05T05:02:17.060Z,480.00
2022-10-05T05:03:16.952Z,486.00
2022-10-05T05:04:17.039Z,490.00
2022-10-05T05:05:16.931Z,493.00
2022-10-05T05:06:18.242Z,489.00
2022-10-05T05:07:16.974Z,488.00
2022-10-05T05:08:17.182Z,490.00
2022-10-05T05:09:17.128Z,489.00
2022-10-05T05:10:17.180Z,490.00
2022-10-05T05:11:20.082Z,493.00
2022-10-05T05:12:17.271Z,491.00
2022-10-05T05:13:17.119Z,494.00
2022-10-05T05:14:17.314Z,483.00
2022-10-05T05:15:17.225Z,485.00
2022-10-05T05:16:17.349Z,490.00
2022-10-05T05:17:17.212Z,484.00
2022-10-05T05:18:17.502Z,488.00
2022-10-05T05:19:17.261Z,487.00
2022-10-05T05:20:17.401Z,489.00
2022-10-05T05:21:17.772Z,491.00
2022-10-05T05:22:17.329Z,492.00
2022-10-05T05:23:17.468Z,492.00
2022-10-05T05:24:17.370Z,491.00
2022-10-05T05:25:17.578Z,491.00
2022-10-05T05:26:17.409Z,494.00
2022-10-05T05:27:18.667Z,496.00
2022-10-05T05:28:17.707Z,498.00
2022-10-05T05:29:17.481Z,495.00
2022-10-05T05:30:17.685Z,493.00
2022-10-05T05:31:17.641Z,492.00
2022-10-05T05:32:17.665Z,489.00
2022-10-05T05:33:17.865Z,490.00
2022-10-05T05:34:17.581Z,490.00
2022-10-05T05:35:17.734Z,486.00
2022-10-05T05:36:22.868Z,485.00
2022-10-05T05:37:17.877Z,485.00
2022-10-05T05:38:17.707Z,486.00
2022-10-05T05:39:17.843Z,489.00
2022-10-05T05:40:17.699Z,491.00
2022-10-05T05:41:17.884Z,494.00
2022-10-05T05:42:17.731Z,495.00
2022-10-05T05:43:18.061Z,498.00
2022-10-05T05:44:17.767Z,498.00
2022-10-05T05:45:18.020Z,496.00
2022-10-05T05:46:17.840Z,496.00
2022-10-05T05:47:17.970Z,492.00
2022-10-05T05:48:17.813Z,493.00
2022-10-05T05:49:18.062Z,489.00
2022-10-05T05:50:17.844Z,493.00
2022-10-05T05:51:18.040Z,489.00
2022-10-05T05:52:17.885Z,488.00
2022-10-05T05:53:17.379Z,0.00
2022-10-05T05:54:17.162Z,0.00
2022-10-05T05:55:17.360Z,0.00
2022-10-05T05:56:17.205Z,0.00
2022-10-05T05:57:17.418Z,0.00
2022-10-05T05:58:17.246Z,0.00
2022-10-05T05:59:17.433Z,0.00
2022-10-05T06:00:17.287Z,0.00
2022-10-05T06:01:32.098Z,0.00
2022-10-05T06:02:17.462Z,0.00
2022-10-05T06:03:17.655Z,0.00
2022-10-05T06:04:17.374Z,0.00
2022-10-05T06:05:17.587Z,0.00
2022-10-05T06:06:17.414Z,0.00
2022-10-05T06:07:17.614Z,0.00
2022-10-05T06:08:17.456Z,0.00
2022-10-05T06:09:17.689Z,0.00
2022-10-05T06:10:17.501Z,0.00
2022-10-05T06:11:17.638Z,0.00
2022-10-05T06:12:17.582Z,0.00
2022-10-05T06:13:17.733Z,0.00
2022-10-05T06:14:17.576Z,0.00
2022-10-05T06:15:17.708Z,0.00
2022-10-05T06:16:17.667Z,0.00
2022-10-05T06:17:17.820Z,0.00
2022-10-05T06:18:17.708Z,0.00
2022-10-05T06:19:17.883Z,0.00
2022-10-05T06:20:17.699Z,0.00
2022-10-05T06:21:17.852Z,0.00
2022-10-05T06:22:17.755Z,0.00
2022-10-05T06:23:17.947Z,0.00
2022-10-05T06:24:17.846Z,0.00
2022-10-05T06:25:18.025Z,0.00
2022-10-05T06:26:17.854Z,0.00
2022-10-05T06:27:18.052Z,0.00
2022-10-05T06:28:17.950Z,0.00
2022-10-05T06:29:18.166Z,0.00
2022-10-05T06:30:18.019Z,0.00
2022-10-05T06:31:18.195Z,0.00
2022-10-05T06:32:18.019Z,0.00
2022-10-05T06:33:18.219Z,0.00
2022-10-05T06:34:18.068Z,0.00
2022-10-05T06:35:18.216Z,0.00
2022-10-05T06:36:18.332Z,0.00
2022-10-05T06:37:18.140Z,0.00
2022-10-05T06:38:18.297Z,0.00
2022-10-05T06:39:18.184Z,0.00
2022-10-05T06:40:18.372Z,0.00
2022-10-05T06:41:18.237Z,0.00
2022-10-05T06:42:18.441Z,0.00
2022-10-05T06:43:18.289Z,0.00
2022-10-05T06:44:18.491Z,0.00
2022-10-05T06:45:18.337Z,0.00
2022-10-05T06:46:18.810Z,0.00
2022-10-05T06:47:18.434Z,0.00
2022-10-05T06:48:18.546Z,0.00
2022-10-05T06:49:18.435Z,0.00
2022-10-05T06:50:18.641Z,0.00
2022-10-05T06:51:18.486Z,0.00
2022-10-05T06:52:18.690Z,0.00
2022-10-05T06:53:18.597Z,0.00
2022-10-05T06:54:18.678Z,0.00
2022-10-05T06:55:18.593Z,0.00
2022-10-05T06:56:18.790Z,0.00
2022-10-05T06:57:18.637Z,0.00
2022-10-05T06:58:18.840Z,0.00
2022-10-05T06:59:18.746Z,0.00
2022-10-05T07:00:18.839Z,0.00
2022-10-05T07:01:18.819Z,0.00
2022-10-05T07:02:18.998Z,0.00
2022-10-05T07:03:18.775Z,0.00
2022-10-05T07:04:18.987Z,0.00
2022-10-05T07:05:18.867Z,0.00
2022-10-05T07:06:18.952Z,0.00
2022-10-05T07:07:18.846Z,0.00
2022-10-05T07:08:19.046Z,0.00
2022-10-05T07:09:18.875Z,0.00
2022-10-05T07:10:19.108Z,0.00
2022-10-05T07:11:18.900Z,0.00
2022-10-05T07:12:19.042Z,0.00
2022-10-05T07:13:18.926Z,0.00
2022-10-05T07:14:19.104Z,0.00
2022-10-05T07:15:18.940Z,0.00
2022-10-05T07:16:19.248Z,0.00
2022-10-05T07:17:18.959Z,0.00
2022-10-05T07:18:20.068Z,0.00
2022-10-05T07:19:19.199Z,0.00
2022-10-05T07:20:19.012Z,0.00
2022-10-05T07:21:19.175Z,0.00
2022-10-05T07:22:19.082Z,0.00
2022-10-05T07:23:19.184Z,0.00
2022-10-05T07:24:19.069Z,0.00
2022-10-05T07:25:19.259Z,0.00
2022-10-05T07:26:19.109Z,0.00
2022-10-05T07:27:19.240Z,0.00
2022-10-05T07:28:19.511Z,0.00
2022-10-05T07:29:19.157Z,0.00
2022-10-05T07:30:19.258Z,0.00
2022-10-05T07:31:19.232Z,0.00
2022-10-05T07:32:19.363Z,0.00
2022-10-05T07:33:19.225Z,0.00
2022-10-05T07:34:19.684Z,0.00
2022-10-05T07:35:19.222Z,0.00
2022-10-05T07:36:19.413Z,0.00
2022-10-05T07:37:19.280Z,0.00
2022-10-05T07:38:19.378Z,0.00
2022-10-05T07:39:20.193Z,0.00
2022-10-05T07:40:19.577Z,0.00
2022-10-05T07:41:19.294Z,0.00
2022-10-05T07:42:19.419Z,0.00
2022-10-05T07:43:19.307Z,0.00
2022-10-05T07:44:19.523Z,0.00
2022-10-05T07:45:19.333Z,0.00
2022-10-05T07:46:19.638Z,0.00
2022-10-05T07:47:19.357Z,0.00
2022-10-05T07:48:19.543Z,0.00
2022-10-05T07:49:19.386Z,0.00
2022-10-05T07:50:19.525Z,0.00
2022-10-05T07:51:19.414Z,0.00
2022-10-05T07:52:19.915Z,0.00
2022-10-05T07:53:19.449Z,0.00
2022-10-05T07:54:19.597Z,0.00
2022-10-05T07:55:19.473Z,0.00
2022-10-05T07:56:19.710Z,0.00
2022-10-05T07:57:19.546Z,0.00
2022-10-05T07:58:19.632Z,0.00
2022-10-05T07:59:19.514Z,0.00
2022-10-05T08:00:19.850Z,0.00
2022-10-05T08:01:19.537Z,0.00
2022-10-05T08:02:19.803Z,0.00
2022-10-05T08:03:19.886Z,0.00
2022-10-05T08:04:19.560Z,0.00
2022-10-05T08:05:19.697Z,0.00
2022-10-05T08:06:19.573Z,0.00
2022-10-05T08:07:19.800Z,0.00
2022-10-05T08:08:20.453Z,0.00
2022-10-05T08:09:19.816Z,0.00
2022-10-05T08:10:19.605Z,0.00
2022-10-05T08:11:19.729Z,0.00
2022-10-05T08:12:19.609Z,0.00
2022-10-05T08:13:20.138Z,0.00
2022-10-05T08:14:19.662Z,0.00
2022-10-05T08:15:19.908Z,0.00
2022-10-05T08:16:19.631Z,0.00
2022-10-05T08:17:23.977Z,0.00
2022-10-05T08:18:19.613Z,0.00
2022-10-05T08:19:20.787Z,0.00
2022-10-05T08:20:19.805Z,0.00
2022-10-05T08:21:19.631Z,0.00
2022-10-05T08:22:19.816Z,0.00
2022-10-05T08:23:19.642Z,0.00
2022-10-05T08:24:19.835Z,0.00
2022-10-05T08:25:19.696Z,0.00
2022-10-05T08:26:19.821Z,0.00
2022-10-05T08:27:19.651Z,0.00
2022-10-05T08:28:19.892Z,0.00
2022-10-05T08:29:19.665Z,0.00
2022-10-05T08:30:19.908Z,0.00
2022-10-05T08:31:20.137Z,0.00
2022-10-05T08:32:19.677Z,0.00
2022-10-05T08:33:19.857Z,0.00
2022-10-05T08:34:19.688Z,0.00
2022-10-05T08:35:19.828Z,0.00
2022-10-05T08:36:19.704Z,0.00
2022-10-05T08:37:19.938Z,0.00
2022-10-05T08:38:19.716Z,0.00
2022-10-05T08:39:19.852Z,0.00
2022-10-05T08:40:19.783Z,0.00
2022-10-05T08:41:19.905Z,0.00
2022-10-05T08:42:19.743Z,0.00
2022-10-05T08:43:19.977Z,0.00
2022-10-05T08:44:19.753Z,0.00
2022-10-05T08:45:19.997Z,0.00
2022-10-05T08:46:19.840Z,0.00
2022-10-05T08:47:19.969Z,0.00
2022-10-05T08:48:19.780Z,0.00
2022-10-05T08:49:20.177Z,0.00
2022-10-05T08:50:19.859Z,0.00
2022-10-05T08:51:19.929Z,0.00
2022-10-05T08:52:19.893Z,0.00
2022-10-05T08:53:19.961Z,0.00
2022-10-05T08:54:19.795Z,0.00
2022-10-05T08:55:20.033Z,0.00
2022-10-05T08:56:21.490Z,0.00
2022-10-05T08:57:19.935Z,0.00
2022-10-05T08:58:19.810Z,0.00
2022-10-05T08:59:20.423Z,0.00
2022-10-05T09:00:19.910Z,0.00
2022-10-05T09:01:20.133Z,0.00
2022-10-05T09:02:19.934Z,0.00
2022-10-05T09:03:19.956Z,0.00
2022-10-05T09:04:19.848Z,0.00
2022-10-05T09:05:20.002Z,0.00
2022-10-05T09:06:19.833Z,0.00
2022-10-05T09:07:20.067Z,0.00
2022-10-05T09:08:19.842Z,0.00
2022-10-05T09:09:19.974Z,0.00
2022-10-05T09:10:19.869Z,0.00
2022-10-05T09:11:20.040Z,0.00
2022-10-05T09:12:19.897Z,0.00
2022-10-05T09:13:20.087Z,0.00
2022-10-05T09:14:19.861Z,0.00
2022-10-05T09:15:25.973Z,0.00
2022-10-05T09:16:19.953Z,0.00
2022-10-05T09:17:20.039Z,0.00
2022-10-05T09:18:19.862Z,0.00
2022-10-05T09:19:20.052Z,0.00
2022-10-05T09:20:19.869Z,0.00
2022-10-05T09:21:20.064Z,0.00
2022-10-05T09:22:19.890Z,0.00
2022-10-05T09:23:20.073Z,0.00
2022-10-05T09:24:19.891Z,0.00
2022-10-05T09:25:20.139Z,0.00
2022-10-05T09:26:19.891Z,0.00
2022-10-05T09:27:20.083Z,0.00
2022-10-05T09:28:19.966Z,0.00
2022-10-05T09:29:20.109Z,0.00
2022-10-05T09:30:19.892Z,0.00
2022-10-05T09:31:20.153Z,0.00
2022-10-05T09:32:19.907Z,0.00
2022-10-05T09:33:20.068Z,0.00
2022-10-05T09:34:19.893Z,0.00
2022-10-05T09:35:20.011Z,0.00
2022-10-05T09:36:19.889Z,0.00
2022-10-05T09:37:20.173Z,0.00
2022-10-05T09:38:19.901Z,0.00
2022-10-05T09:39:20.006Z,0.00
2022-10-05T09:40:19.907Z,0.00
2022-10-05T09:41:20.080Z,0.00
2022-10-05T09:42:19.919Z,0.00
2022-10-05T09:43:20.083Z,0.00
2022-10-05T09:44:19.930Z,0.00
2022-10-05T09:45:21.463Z,0.00
2022-10-05T09:46:19.982Z,0.00
2022-10-05T09:47:20.039Z,0.00
2022-10-05T09:48:19.914Z,0.00
2022-10-05T09:49:20.435Z,0.00
2022-10-05T09:50:19.909Z,0.00
2022-10-05T09:51:20.082Z,0.00
2022-10-05T09:52:19.909Z,0.00
2022-10-05T09:53:20.027Z,0.00
2022-10-05T09:54:19.890Z,0.00
2022-10-05T09:55:20.111Z,0.00
2022-10-05T09:56:19.950Z,0.00
2022-10-05T09:57:20.036Z,0.00
2022-10-05T09:58:19.874Z,0.00
2022-10-05T09:59:20.049Z,0.00
2022-10-05T10:00:21.047Z,0.00
2022-10-05T10:01:33.325Z,0.00
2022-10-05T10:02:19.977Z,0.00
2022-10-05T10:03:20.343Z,0.00
2022-10-05T10:04:19.867Z,0.00
2022-10-05T10:05:20.066Z,0.00
2022-10-05T10:06:19.943Z,0.00
2022-10-05T10:07:19.984Z,0.00
2022-10-05T10:08:19.854Z,0.00
2022-10-05T10:09:20.029Z,0.00
2022-10-05T10:10:19.866Z,0.00
2022-10-05T10:11:19.984Z,0.00
2022-10-05T10:12:20.080Z,0.00
2022-10-05T10:13:19.845Z,0.00
2022-10-05T10:14:19.960Z,0.00
2022-10-05T10:15:19.861Z,0.00
2022-10-05T10:16:20.181Z,0.00
2022-10-05T10:17:19.828Z,0.00
2022-10-05T10:18:20.045Z,0.00
2022-10-05T10:19:19.815Z,0.00
2022-10-05T10:20:19.949Z,0.00
2022-10-05T10:21:19.805Z,0.00
2022-10-05T10:22:19.977Z,0.00
2022-10-05T10:23:19.790Z,0.00
2022-10-05T10:24:19.979Z,0.00
2022-10-05T10:25:19.783Z,0.00
2022-10-05T10:26:19.901Z,0.00
2022-10-05T10:27:19.762Z,0.00
2022-10-05T10:28:20.003Z,0.00
2022-10-05T10:29:19.851Z,0.00
2022-10-05T10:30:19.940Z,0.00
2022-10-05T10:31:19.816Z,0.00
2022-10-05T10:32:19.925Z,0.00
2022-10-05T10:33:19.738Z,0.00
2022-10-05T10:34:19.913Z,0.00
2022-10-05T10:35:19.818Z,0.00
2022-10-05T10:36:19.906Z,0.00
2022-10-05T10:37:19.714Z,0.00
2022-10-05T10:38:19.888Z,0.00
2022-10-05T10:39:19.718Z,0.00
2022-10-05T10:40:19.888Z,0.00
2022-10-05T10:41:19.935Z,0.00
2022-10-05T10:42:25.300Z,0.00
2022-10-05T10:43:19.977Z,0.00
2022-10-05T10:44:19.694Z,0.00
2022-10-05T10:45:19.818Z,0.00
2022-10-05T10:46:19.746Z,0.00
2022-10-05T10:47:19.917Z,0.00
2022-10-05T10:48:19.676Z,0.00
2022-10-05T10:49:19.855Z,0.00
2022-10-05T10:50:19.699Z,0.00
2022-10-05T10:51:19.853Z,0.00
2022-10-05T10:52:19.720Z,0.00
2022-10-05T10:53:19.911Z,0.00
2022-10-05T10:54:19.717Z,0.00
2022-10-05T10:55:19.899Z,0.00
2022-10-05T10:56:19.684Z,0.00
2022-10-05T10:57:19.838Z,0.00
2022-10-05T10:58:19.765Z,0.00
2022-10-05T10:59:19.907Z,0.00
2022-10-05T11:00:19.680Z,0.00
2022-10-05T11:01:19.914Z,0.00
2022-10-05T11:02:19.746Z,0.00
2022-10-05T11:03:19.796Z,0.00
2022-10-05T11:04:19.690Z,0.00
2022-10-05T11:05:19.895Z,0.00
2022-10-05T11:06:19.685Z,0.00
2022-10-05T11:07:19.919Z,0.00
2022-10-05T11:08:19.673Z,0.00
2022-10-05T11:09:19.793Z,0.00
2022-10-05T11:10:19.678Z,0.00
2022-10-05T11:11:19.898Z,0.00
2022-10-05T11:12:19.667Z,0.00
2022-10-05T11:13:19.836Z,0.00
2022-10-05T11:14:19.661Z,0.00
2022-10-05T11:15:19.835Z,0.00
2022-10-05T11:16:20.024Z,0.00
2022-10-05T11:17:19.830Z,0.00
2022-10-05T11:18:19.656Z,0.00
2022-10-05T11:19:19.832Z,0.00
2022-10-05T11:20:19.643Z,0.00
2022-10-05T11:21:19.824Z,0.00
2022-10-05T11:22:19.641Z,0.00
2022-10-05T11:23:19.815Z,0.00
2022-10-05T11:24:19.647Z,0.00
2022-10-05T11:25:19.853Z,0.00
2022-10-05T11:26:19.645Z,0.00
2022-10-05T11:27:19.893Z,0.00
2022-10-05T11:28:19.693Z,0.00
2022-10-05T11:29:19.842Z,0.00
2022-10-05T11:30:19.671Z,0.00
2022-10-05T11:31:19.920Z,0.00
2022-10-05T11:32:19.707Z,0.00
2022-10-05T11:33:19.870Z,0.00
2022-10-05T11:34:19.680Z,0.00
2022-10-05T11:35:19.857Z,0.00
2022-10-05T11:36:19.696Z,0.00
2022-10-05T11:37:19.865Z,0.00
2022-10-05T11:38:19.697Z,0.00
2022-10-05T11:39:19.874Z,0.00
2022-10-05T11:40:19.710Z,0.00
2022-10-05T11:41:19.855Z,0.00
2022-10-05T11:42:19.728Z,0.00
2022-10-05T11:43:19.980Z,0.00
2022-10-05T11:44:19.722Z,0.00
2022-10-05T11:45:19.889Z,0.00
2022-10-05T11:46:19.862Z,0.00
2022-10-05T11:47:19.861Z,0.00
2022-10-05T11:48:19.723Z,0.00
2022-10-05T11:49:19.939Z,0.00
2022-10-05T11:50:19.731Z,0.00
2022-10-05T11:51:20.758Z,0.00
2022-10-05T11:52:19.791Z,0.00
2022-10-05T11:53:19.990Z,0.00
2022-10-05T11:54:19.740Z,0.00
2022-10-05T11:55:19.923Z,0.00
2022-10-05T11:56:19.774Z,0.00
2022-10-05T11:57:19.920Z,0.00
2022-10-05T11:58:19.803Z,0.00
2022-10-05T11:59:19.897Z,0.00
2022-10-05T12:00:19.760Z,0.00
2022-10-05T12:01:19.964Z,0.00
2022-10-05T12:02:19.771Z,0.00
2022-10-05T12:03:20.019Z,0.00
2022-10-05T12:04:19.859Z,0.00
2022-10-05T12:05:19.951Z,0.00
2022-10-05T12:06:19.800Z,0.00
2022-10-05T12:07:20.007Z,0.00
2022-10-05T12:08:19.797Z,0.00
2022-10-05T12:09:19.992Z,0.00
2022-10-05T12:10:19.856Z,0.00
2022-10-05T12:11:20.176Z,0.00
2022-10-05T12:12:19.812Z,0.00
2022-10-05T12:13:19.976Z,0.00
2022-10-05T12:14:19.815Z,0.00
2022-10-05T12:15:19.952Z,0.00
2022-10-05T12:16:20.133Z,0.00
2022-10-05T12:17:19.817Z,0.00
2022-10-05T12:18:19.942Z,0.00
2022-10-05T12:19:19.816Z,0.00
2022-10-05T12:20:19.992Z,0.00
2022-10-05T12:21:19.810Z,0.00
2022-10-05T12:22:20.840Z,0.00
2022-10-05T12:23:19.818Z,0.00
2022-10-05T12:24:23.388Z,0.00
2022-10-05T12:25:19.826Z,0.00
2022-10-05T12:26:19.987Z,0.00
2022-10-05T12:27:19.819Z,0.00
2022-10-05T12:28:20.060Z,0.00
2022-10-05T12:29:19.807Z,0.00
2022-10-05T12:30:19.955Z,0.00
2022-10-05T12:31:19.850Z,0.00
2022-10-05T12:32:19.990Z,0.00
2022-10-05T12:33:20.036Z,0.00
2022-10-05T12:34:19.874Z,0.00
2022-10-05T12:35:36.646Z,0.00
2022-10-05T12:36:19.851Z,0.00
2022-10-05T12:37:20.011Z,0.00
2022-10-05T12:38:19.842Z,0.00
2022-10-05T12:39:20.031Z,0.00
2022-10-05T12:40:20.075Z,0.00
2022-10-05T12:41:19.849Z,0.00
2022-10-05T12:42:20.036Z,0.00
2022-10-05T12:43:19.854Z,0.00
2022-10-05T12:44:19.981Z,0.00
2022-10-05T12:45:19.858Z,0.00
2022-10-05T12:46:20.131Z,0.00
2022-10-05T12:47:19.850Z,0.00
2022-10-05T12:48:20.093Z,0.00
2022-10-05T12:49:19.860Z,0.00
2022-10-05T12:50:20.029Z,0.00
2022-10-05T12:51:19.865Z,0.00
2022-10-05T12:52:20.056Z,0.00
2022-10-05T12:53:19.878Z,0.00
2022-10-05T12:54:20.056Z,0.00